sensor_id;sensor_type;location;lat;lon;timestamp;P1;durP1;ratioP1;P2;durP2;ratioP2
15651;SDS011;7926;43.576;1.458;2022-10-13T00:01:44;0.60;;;0.60;;
15651;SDS011;7926;43.576;1.458;2022-10-13T00:04:11;0.50;;;0.50;;
15651;SDS011;7926;43.576;1.458;2022-10-13T00:06:39;0.57;;;0.57;;
15651;SDS011;7926;43.576;1.458;2022-10-13T00:09:06;0.50;;;0.50;;
15651;SDS011;7926;43.576;1.458;2022-10-13T00:11:35;0.60;;;0.60;;
15651;SDS011;7926;43.576;1.458;2022-10-13T00:14:03;0.50;;;0.50;;
15651;SDS011;7926;43.576;1.458;2022-10-13T00:16:30;0.50;;;0.50;;
15651;SDS011;7926;43.576;1.458;2022-10-13T00:18:58;0.60;;;0.60;;
15651;SDS011;7926;43.576;1.458;2022-10-13T00:21:25;0.50;;;0.50;;
15651;SDS011;7926;43.576;1.458;2022-10-13T00:23:53;0.60;;;0.60;;
15651;SDS011;7926;43.576;1.458;2022-10-13T00:26:22;0.50;;;0.50;;
15651;SDS011;7926;43.576;1.458;2022-10-13T00:28:51;0.60;;;0.60;;
15651;SDS011;7926;43.576;1.458;2022-10-13T00:31:19;0.60;;;0.60;;
15651;SDS011;7926;43.576;1.458;2022-10-13T00:33:46;0.50;;;0.50;;
15651;SDS011;7926;43.576;1.458;2022-10-13T00:36:14;0.53;;;0.53;;
15651;SDS011;7926;43.576;1.458;2022-10-13T00:38:42;0.50;;;0.50;;
15651;SDS011;7926;43.576;1.458;2022-10-13T00:41:09;0.60;;;0.60;;
15651;SDS011;7926;43.576;1.458;2022-10-13T00:43:54;0.50;;;0.50;;
15651;SDS011;7926;43.576;1.458;2022-10-13T00:46:22;0.60;;;0.60;;
15651;SDS011;7926;43.576;1.458;2022-10-13T00:48:50;0.53;;;0.53;;
15651;SDS011;7926;43.576;1.458;2022-10-13T00:51:20;0.50;;;0.50;;
15651;SDS011;7926;43.576;1.458;2022-10-13T00:53:48;0.50;;;0.50;;
15651;SDS011;7926;43.576;1.458;2022-10-13T00:56:16;0.50;;;0.50;;
15651;SDS011;7926;43.576;1.458;2022-10-13T00:58:44;0.50;;;0.50;;
15651;SDS011;7926;43.576;1.458;2022-10-13T01:01:14;0.60;;;0.60;;
15651;SDS011;7926;43.576;1.458;2022-10-13T01:03:42;0.50;;;0.50;;
15651;SDS011;7926;43.576;1.458;2022-10-13T01:06:10;0.50;;;0.50;;
15651;SDS011;7926;43.576;1.458;2022-10-13T01:08:38;0.60;;;0.60;;
15651;SDS011;7926;43.576;1.458;2022-10-13T01:11:10;0.50;;;0.50;;
15651;SDS011;7926;43.576;1.458;2022-10-13T01:13:43;0.50;;;0.50;;
15651;SDS011;7926;43.576;1.458;2022-10-13T01:16:16;0.60;;;0.60;;
15651;SDS011;7926;43.576;1.458;2022-10-13T01:18:48;0.60;;;0.60;;
15651;SDS011;7926;43.576;1.458;2022-10-13T01:21:20;0.50;;;0.50;;
15651;SDS011;7926;43.576;1.458;2022-10-13T01:29:27;0.50;;;0.50;;
15651;SDS011;7926;43.576;1.458;2022-10-13T01:32:00;0.50;;;0.50;;
15651;SDS011;7926;43.576;1.458;2022-10-13T01:34:43;0.50;;;0.50;;
15651;SDS011;7926;43.576;1.458;2022-10-13T01:37:15;0.50;;;0.50;;
15651;SDS011;7926;43.576;1.458;2022-10-13T01:39:49;0.50;;;0.50;;
15651;SDS011;7926;43.576;1.458;2022-10-13T01:42:18;0.50;;;0.50;;
15651;SDS011;7926;43.576;1.458;2022-10-13T01:44:48;0.50;;;0.50;;
15651;SDS011;7926;43.576;1.458;2022-10-13T01:47:17;0.60;;;0.60;;
15651;SDS011;7926;43.576;1.458;2022-10-13T01:49:45;0.50;;;0.50;;
15651;SDS011;7926;43.576;1.458;2022-10-13T01:52:13;0.50;;;0.50;;
15651;SDS011;7926;43.576;1.458;2022-10-13T01:54:41;0.50;;;0.50;;
15651;SDS011;7926;43.576;1.458;2022-10-13T01:59:51;0.50;;;0.50;;
15651;SDS011;7926;43.576;1.458;2022-10-13T02:02:20;0.50;;;0.50;;
15651;SDS011;7926;43.576;1.458;2022-10-13T02:04:50;0.50;;;0.50;;
15651;SDS011;7926;43.576;1.458;2022-10-13T02:07:19;0.50;;;0.50;;
15651;SDS011;7926;43.576;1.458;2022-10-13T02:09:50;0.50;;;0.50;;
15651;SDS011;7926;43.576;1.458;2022-10-13T02:12:23;0.60;;;0.60;;
15651;SDS011;7926;43.576;1.458;2022-10-13T02:14:51;0.50;;;0.50;;
15651;SDS011;7926;43.576;1.458;2022-10-13T02:17:20;0.50;;;0.50;;
15651;SDS011;7926;43.576;1.458;2022-10-13T02:19:48;0.50;;;0.50;;
15651;SDS011;7926;43.576;1.458;2022-10-13T02:22:17;0.50;;;0.50;;
15651;SDS011;7926;43.576;1.458;2022-10-13T02:24:45;0.50;;;0.50;;
15651;SDS011;7926;43.576;1.458;2022-10-13T02:27:12;0.50;;;0.50;;
15651;SDS011;7926;43.576;1.458;2022-10-13T02:29:49;0.50;;;0.50;;
15651;SDS011;7926;43.576;1.458;2022-10-13T02:32:17;0.50;;;0.50;;
15651;SDS011;7926;43.576;1.458;2022-10-13T02:34:45;0.40;;;0.40;;
15651;SDS011;7926;43.576;1.458;2022-10-13T02:37:13;0.50;;;0.50;;
15651;SDS011;7926;43.576;1.458;2022-10-13T02:39:40;0.50;;;0.50;;
15651;SDS011;7926;43.576;1.458;2022-10-13T02:42:07;0.50;;;0.50;;
15651;SDS011;7926;43.576;1.458;2022-10-13T02:44:35;0.50;;;0.50;;
15651;SDS011;7926;43.576;1.458;2022-10-13T02:47:04;0.50;;;0.50;;
15651;SDS011;7926;43.576;1.458;2022-10-13T02:49:31;0.50;;;0.50;;
15651;SDS011;7926;43.576;1.458;2022-10-13T02:52:00;0.50;;;0.50;;
15651;SDS011;7926;43.576;1.458;2022-10-13T02:54:27;0.50;;;0.50;;
15651;SDS011;7926;43.576;1.458;2022-10-13T02:56:54;0.50;;;0.50;;
15651;SDS011;7926;43.576;1.458;2022-10-13T02:59:21;0.50;;;0.50;;
15651;SDS011;7926;43.576;1.458;2022-10-13T03:01:49;0.50;;;0.50;;
15651;SDS011;7926;43.576;1.458;2022-10-13T03:04:16;0.50;;;0.50;;
15651;SDS011;7926;43.576;1.458;2022-10-13T03:06:43;0.50;;;0.50;;
15651;SDS011;7926;43.576;1.458;2022-10-13T03:09:12;0.50;;;0.50;;
15651;SDS011;7926;43.576;1.458;2022-10-13T03:11:39;0.50;;;0.50;;
15651;SDS011;7926;43.576;1.458;2022-10-13T03:14:07;0.50;;;0.50;;
15651;SDS011;7926;43.576;1.458;2022-10-13T03:16:34;0.50;;;0.50;;
15651;SDS011;7926;43.576;1.458;2022-10-13T03:19:02;0.50;;;0.50;;
15651;SDS011;7926;43.576;1.458;2022-10-13T03:21:29;0.50;;;0.50;;
15651;SDS011;7926;43.576;1.458;2022-10-13T03:23:56;0.50;;;0.50;;
15651;SDS011;7926;43.576;1.458;2022-10-13T03:26:25;0.50;;;0.50;;
15651;SDS011;7926;43.576;1.458;2022-10-13T03:28:52;0.50;;;0.50;;
15651;SDS011;7926;43.576;1.458;2022-10-13T03:31:19;0.50;;;0.50;;
15651;SDS011;7926;43.576;1.458;2022-10-13T03:33:47;0.50;;;0.50;;
15651;SDS011;7926;43.576;1.458;2022-10-13T03:36:14;0.50;;;0.50;;
15651;SDS011;7926;43.576;1.458;2022-10-13T03:38:41;0.50;;;0.50;;
15651;SDS011;7926;43.576;1.458;2022-10-13T03:41:09;0.50;;;0.50;;
15651;SDS011;7926;43.576;1.458;2022-10-13T03:43:38;0.50;;;0.50;;
15651;SDS011;7926;43.576;1.458;2022-10-13T03:46:06;0.50;;;0.50;;
15651;SDS011;7926;43.576;1.458;2022-10-13T03:48:35;0.50;;;0.50;;
15651;SDS011;7926;43.576;1.458;2022-10-13T03:51:05;0.50;;;0.50;;
15651;SDS011;7926;43.576;1.458;2022-10-13T03:53:33;0.40;;;0.40;;
15651;SDS011;7926;43.576;1.458;2022-10-13T03:56:01;0.40;;;0.40;;
15651;SDS011;7926;43.576;1.458;2022-10-13T03:58:29;0.50;;;0.50;;
15651;SDS011;7926;43.576;1.458;2022-10-13T04:01:00;0.50;;;0.50;;
15651;SDS011;7926;43.576;1.458;2022-10-13T04:03:28;0.50;;;0.50;;
15651;SDS011;7926;43.576;1.458;2022-10-13T04:05:58;0.40;;;0.40;;
15651;SDS011;7926;43.576;1.458;2022-10-13T04:08:25;0.40;;;0.40;;
15651;SDS011;7926;43.576;1.458;2022-10-13T04:10:56;0.50;;;0.50;;
15651;SDS011;7926;43.576;1.458;2022-10-13T04:13:24;0.40;;;0.40;;
15651;SDS011;7926;43.576;1.458;2022-10-13T04:15:51;0.50;;;0.50;;
15651;SDS011;7926;43.576;1.458;2022-10-13T04:18:20;0.40;;;0.40;;
15651;SDS011;7926;43.576;1.458;2022-10-13T04:20:47;0.50;;;0.50;;
15651;SDS011;7926;43.576;1.458;2022-10-13T04:23:15;0.40;;;0.40;;
15651;SDS011;7926;43.576;1.458;2022-10-13T04:25:42;0.40;;;0.40;;
15651;SDS011;7926;43.576;1.458;2022-10-13T04:28:10;0.40;;;0.40;;
15651;SDS011;7926;43.576;1.458;2022-10-13T04:30:37;0.40;;;0.40;;
15651;SDS011;7926;43.576;1.458;2022-10-13T04:33:05;0.40;;;0.40;;
15651;SDS011;7926;43.576;1.458;2022-10-13T04:35:37;0.40;;;0.40;;
15651;SDS011;7926;43.576;1.458;2022-10-13T04:38:05;0.40;;;0.40;;
15651;SDS011;7926;43.576;1.458;2022-10-13T04:40:32;0.40;;;0.40;;
15651;SDS011;7926;43.576;1.458;2022-10-13T04:42:59;0.30;;;0.30;;
15651;SDS011;7926;43.576;1.458;2022-10-13T04:45:27;0.40;;;0.40;;
15651;SDS011;7926;43.576;1.458;2022-10-13T04:48:01;0.40;;;0.40;;
15651;SDS011;7926;43.576;1.458;2022-10-13T04:50:28;0.40;;;0.40;;
15651;SDS011;7926;43.576;1.458;2022-10-13T04:52:57;0.40;;;0.40;;
15651;SDS011;7926;43.576;1.458;2022-10-13T04:55:24;0.40;;;0.40;;
15651;SDS011;7926;43.576;1.458;2022-10-13T04:57:51;0.40;;;0.40;;
15651;SDS011;7926;43.576;1.458;2022-10-13T05:00:19;0.30;;;0.30;;
15651;SDS011;7926;43.576;1.458;2022-10-13T05:02:46;0.30;;;0.30;;
15651;SDS011;7926;43.576;1.458;2022-10-13T05:05:13;0.37;;;0.37;;
15651;SDS011;7926;43.576;1.458;2022-10-13T05:07:41;0.40;;;0.40;;
15651;SDS011;7926;43.576;1.458;2022-10-13T05:10:09;0.40;;;0.40;;
15651;SDS011;7926;43.576;1.458;2022-10-13T05:12:37;0.30;;;0.30;;
15651;SDS011;7926;43.576;1.458;2022-10-13T05:15:04;0.40;;;0.40;;
15651;SDS011;7926;43.576;1.458;2022-10-13T05:17:32;0.40;;;0.40;;
15651;SDS011;7926;43.576;1.458;2022-10-13T05:19:59;0.40;;;0.40;;
15651;SDS011;7926;43.576;1.458;2022-10-13T05:22:26;0.40;;;0.40;;
15651;SDS011;7926;43.576;1.458;2022-10-13T05:24:54;0.40;;;0.40;;
15651;SDS011;7926;43.576;1.458;2022-10-13T05:27:23;0.40;;;0.40;;
15651;SDS011;7926;43.576;1.458;2022-10-13T05:29:50;0.40;;;0.40;;
15651;SDS011;7926;43.576;1.458;2022-10-13T05:32:17;0.37;;;0.37;;
15651;SDS011;7926;43.576;1.458;2022-10-13T05:34:46;0.40;;;0.40;;
15651;SDS011;7926;43.576;1.458;2022-10-13T05:37:14;0.40;;;0.40;;
15651;SDS011;7926;43.576;1.458;2022-10-13T05:39:42;0.40;;;0.40;;
15651;SDS011;7926;43.576;1.458;2022-10-13T05:42:10;0.40;;;0.40;;
15651;SDS011;7926;43.576;1.458;2022-10-13T05:44:38;0.40;;;0.40;;
15651;SDS011;7926;43.576;1.458;2022-10-13T05:47:15;0.30;;;0.30;;
15651;SDS011;7926;43.576;1.458;2022-10-13T05:49:42;0.30;;;0.30;;
15651;SDS011;7926;43.576;1.458;2022-10-13T05:52:09;0.30;;;0.30;;
15651;SDS011;7926;43.576;1.458;2022-10-13T05:54:38;0.30;;;0.30;;
15651;SDS011;7926;43.576;1.458;2022-10-13T05:57:08;0.30;;;0.30;;
15651;SDS011;7926;43.576;1.458;2022-10-13T05:59:38;0.40;;;0.40;;
15651;SDS011;7926;43.576;1.458;2022-10-13T06:02:09;0.30;;;0.30;;
15651;SDS011;7926;43.576;1.458;2022-10-13T06:04:38;0.30;;;0.30;;
15651;SDS011;7926;43.576;1.458;2022-10-13T06:07:06;0.40;;;0.40;;
15651;SDS011;7926;43.576;1.458;2022-10-13T06:09:35;0.30;;;0.30;;
15651;SDS011;7926;43.576;1.458;2022-10-13T06:12:03;0.33;;;0.33;;
15651;SDS011;7926;43.576;1.458;2022-10-13T06:14:30;0.30;;;0.30;;
15651;SDS011;7926;43.576;1.458;2022-10-13T06:16:58;0.30;;;0.30;;
15651;SDS011;7926;43.576;1.458;2022-10-13T06:19:26;0.30;;;0.30;;
15651;SDS011;7926;43.576;1.458;2022-10-13T06:21:54;0.30;;;0.30;;
15651;SDS011;7926;43.576;1.458;2022-10-13T06:24:21;0.30;;;0.30;;
15651;SDS011;7926;43.576;1.458;2022-10-13T06:26:48;0.30;;;0.30;;
15651;SDS011;7926;43.576;1.458;2022-10-13T06:29:15;0.30;;;0.30;;
15651;SDS011;7926;43.576;1.458;2022-10-13T06:31:45;0.30;;;0.30;;
15651;SDS011;7926;43.576;1.458;2022-10-13T06:34:12;0.30;;;0.30;;
15651;SDS011;7926;43.576;1.458;2022-10-13T06:36:41;0.30;;;0.30;;
15651;SDS011;7926;43.576;1.458;2022-10-13T06:39:09;0.30;;;0.30;;
15651;SDS011;7926;43.576;1.458;2022-10-13T06:41:36;0.30;;;0.30;;
15651;SDS011;7926;43.576;1.458;2022-10-13T06:44:03;0.30;;;0.30;;
15651;SDS011;7926;43.576;1.458;2022-10-13T06:46:30;0.30;;;0.30;;
15651;SDS011;7926;43.576;1.458;2022-10-13T06:48:58;0.30;;;0.30;;
15651;SDS011;7926;43.576;1.458;2022-10-13T06:51:25;0.30;;;0.30;;
15651;SDS011;7926;43.576;1.458;2022-10-13T06:53:55;0.30;;;0.30;;
15651;SDS011;7926;43.576;1.458;2022-10-13T06:56:22;0.30;;;0.30;;
15651;SDS011;7926;43.576;1.458;2022-10-13T06:58:50;0.30;;;0.30;;
15651;SDS011;7926;43.576;1.458;2022-10-13T07:01:17;0.30;;;0.30;;
15651;SDS011;7926;43.576;1.458;2022-10-13T07:03:47;0.30;;;0.30;;
15651;SDS011;7926;43.576;1.458;2022-10-13T07:06:14;0.30;;;0.30;;
15651;SDS011;7926;43.576;1.458;2022-10-13T07:08:42;0.30;;;0.30;;
15651;SDS011;7926;43.576;1.458;2022-10-13T07:11:13;0.30;;;0.30;;
15651;SDS011;7926;43.576;1.458;2022-10-13T07:13:40;0.30;;;0.30;;
15651;SDS011;7926;43.576;1.458;2022-10-13T07:16:08;0.30;;;0.30;;
15651;SDS011;7926;43.576;1.458;2022-10-13T07:18:35;0.30;;;0.30;;
15651;SDS011;7926;43.576;1.458;2022-10-13T07:21:03;0.30;;;0.30;;
15651;SDS011;7926;43.576;1.458;2022-10-13T07:23:31;0.30;;;0.30;;
15651;SDS011;7926;43.576;1.458;2022-10-13T07:25:58;0.30;;;0.30;;
15651;SDS011;7926;43.576;1.458;2022-10-13T07:28:27;0.30;;;0.30;;
15651;SDS011;7926;43.576;1.458;2022-10-13T07:30:54;0.30;;;0.30;;
15651;SDS011;7926;43.576;1.458;2022-10-13T07:33:21;0.30;;;0.30;;
15651;SDS011;7926;43.576;1.458;2022-10-13T07:35:49;0.30;;;0.30;;
15651;SDS011;7926;43.576;1.458;2022-10-13T07:38:16;0.30;;;0.30;;
15651;SDS011;7926;43.576;1.458;2022-10-13T07:40:43;0.30;;;0.30;;
15651;SDS011;7926;43.576;1.458;2022-10-13T07:43:11;0.30;;;0.30;;
15651;SDS011;7926;43.576;1.458;2022-10-13T07:45:39;0.23;;;0.23;;
15651;SDS011;7926;43.576;1.458;2022-10-13T07:48:07;0.30;;;0.30;;
15651;SDS011;7926;43.576;1.458;2022-10-13T07:50:35;0.30;;;0.30;;
15651;SDS011;7926;43.576;1.458;2022-10-13T07:53:02;0.30;;;0.30;;
15651;SDS011;7926;43.576;1.458;2022-10-13T07:55:29;0.30;;;0.30;;
15651;SDS011;7926;43.576;1.458;2022-10-13T07:57:58;0.30;;;0.30;;
15651;SDS011;7926;43.576;1.458;2022-10-13T08:00:27;0.30;;;0.30;;
15651;SDS011;7926;43.576;1.458;2022-10-13T08:02:55;0.30;;;0.30;;
15651;SDS011;7926;43.576;1.458;2022-10-13T08:05:23;0.30;;;0.30;;
15651;SDS011;7926;43.576;1.458;2022-10-13T08:07:50;0.30;;;0.30;;
15651;SDS011;7926;43.576;1.458;2022-10-13T08:10:17;0.20;;;0.20;;
15651;SDS011;7926;43.576;1.458;2022-10-13T08:12:45;0.30;;;0.30;;
15651;SDS011;7926;43.576;1.458;2022-10-13T08:15:12;0.30;;;0.30;;
15651;SDS011;7926;43.576;1.458;2022-10-13T08:17:52;0.40;;;0.40;;
15651;SDS011;7926;43.576;1.458;2022-10-13T08:20:21;0.30;;;0.30;;
15651;SDS011;7926;43.576;1.458;2022-10-13T08:22:48;0.30;;;0.30;;
15651;SDS011;7926;43.576;1.458;2022-10-13T08:25:15;0.30;;;0.30;;
15651;SDS011;7926;43.576;1.458;2022-10-13T08:27:42;0.30;;;0.30;;
15651;SDS011;7926;43.576;1.458;2022-10-13T08:30:10;0.37;;;0.37;;
15651;SDS011;7926;43.576;1.458;2022-10-13T08:32:37;0.40;;;0.40;;
15651;SDS011;7926;43.576;1.458;2022-10-13T08:35:05;0.40;;;0.40;;
15651;SDS011;7926;43.576;1.458;2022-10-13T08:37:34;0.30;;;0.30;;
15651;SDS011;7926;43.576;1.458;2022-10-13T08:40:01;0.40;;;0.40;;
15651;SDS011;7926;43.576;1.458;2022-10-13T08:42:28;0.30;;;0.30;;
15651;SDS011;7926;43.576;1.458;2022-10-13T08:44:57;0.30;;;0.30;;
15651;SDS011;7926;43.576;1.458;2022-10-13T08:47:31;0.30;;;0.30;;
15651;SDS011;7926;43.576;1.458;2022-10-13T08:50:01;0.30;;;0.30;;
15651;SDS011;7926;43.576;1.458;2022-10-13T08:52:44;0.30;;;0.30;;
15651;SDS011;7926;43.576;1.458;2022-10-13T08:55:15;0.30;;;0.30;;
15651;SDS011;7926;43.576;1.458;2022-10-13T08:57:43;0.30;;;0.30;;
15651;SDS011;7926;43.576;1.458;2022-10-13T09:00:11;0.33;;;0.33;;
15651;SDS011;7926;43.576;1.458;2022-10-13T09:02:40;0.30;;;0.30;;
15651;SDS011;7926;43.576;1.458;2022-10-13T09:05:10;0.30;;;0.30;;
15651;SDS011;7926;43.576;1.458;2022-10-13T09:07:39;0.30;;;0.30;;
15651;SDS011;7926;43.576;1.458;2022-10-13T09:10:09;0.30;;;0.30;;
15651;SDS011;7926;43.576;1.458;2022-10-13T09:12:36;0.30;;;0.30;;
15651;SDS011;7926;43.576;1.458;2022-10-13T09:15:04;0.30;;;0.30;;
15651;SDS011;7926;43.576;1.458;2022-10-13T09:17:34;0.30;;;0.30;;
15651;SDS011;7926;43.576;1.458;2022-10-13T09:20:03;0.30;;;0.30;;
15651;SDS011;7926;43.576;1.458;2022-10-13T09:22:34;0.40;;;0.40;;
15651;SDS011;7926;43.576;1.458;2022-10-13T09:25:15;0.30;;;0.30;;
15651;SDS011;7926;43.576;1.458;2022-10-13T09:27:43;0.30;;;0.30;;
15651;SDS011;7926;43.576;1.458;2022-10-13T09:30:18;0.30;;;0.30;;
15651;SDS011;7926;43.576;1.458;2022-10-13T09:32:50;0.30;;;0.30;;
15651;SDS011;7926;43.576;1.458;2022-10-13T09:35:19;0.30;;;0.30;;
15651;SDS011;7926;43.576;1.458;2022-10-13T09:37:47;0.30;;;0.30;;
15651;SDS011;7926;43.576;1.458;2022-10-13T09:40:28;0.30;;;0.30;;
15651;SDS011;7926;43.576;1.458;2022-10-13T09:42:56;0.30;;;0.30;;
15651;SDS011;7926;43.576;1.458;2022-10-13T09:45:25;0.30;;;0.30;;
15651;SDS011;7926;43.576;1.458;2022-10-13T09:47:55;0.30;;;0.30;;
15651;SDS011;7926;43.576;1.458;2022-10-13T09:50:23;0.30;;;0.30;;
15651;SDS011;7926;43.576;1.458;2022-10-13T09:52:51;0.30;;;0.30;;
15651;SDS011;7926;43.576;1.458;2022-10-13T09:55:25;0.30;;;0.30;;
15651;SDS011;7926;43.576;1.458;2022-10-13T09:57:54;0.40;;;0.40;;
15651;SDS011;7926;43.576;1.458;2022-10-13T10:00:23;0.30;;;0.30;;
15651;SDS011;7926;43.576;1.458;2022-10-13T10:02:52;0.30;;;0.30;;
15651;SDS011;7926;43.576;1.458;2022-10-13T10:05:23;0.30;;;0.30;;
15651;SDS011;7926;43.576;1.458;2022-10-13T10:07:51;0.30;;;0.30;;
15651;SDS011;7926;43.576;1.458;2022-10-13T10:10:24;0.30;;;0.30;;
15651;SDS011;7926;43.576;1.458;2022-10-13T10:12:54;0.30;;;0.30;;
15651;SDS011;7926;43.576;1.458;2022-10-13T10:15:24;0.40;;;0.40;;
15651;SDS011;7926;43.576;1.458;2022-10-13T10:17:53;0.40;;;0.40;;
15651;SDS011;7926;43.576;1.458;2022-10-13T10:20:36;0.30;;;0.30;;
15651;SDS011;7926;43.576;1.458;2022-10-13T10:23:06;0.30;;;0.30;;
15651;SDS011;7926;43.576;1.458;2022-10-13T10:25:38;0.30;;;0.30;;
15651;SDS011;7926;43.576;1.458;2022-10-13T10:28:17;0.30;;;0.30;;
15651;SDS011;7926;43.576;1.458;2022-10-13T10:30:50;0.30;;;0.30;;
15651;SDS011;7926;43.576;1.458;2022-10-13T10:33:20;0.40;;;0.40;;
15651;SDS011;7926;43.576;1.458;2022-10-13T10:35:50;0.30;;;0.30;;
15651;SDS011;7926;43.576;1.458;2022-10-13T10:38:21;0.30;;;0.30;;
15651;SDS011;7926;43.576;1.458;2022-10-13T10:40:53;0.20;;;0.20;;
15651;SDS011;7926;43.576;1.458;2022-10-13T10:46:09;0.30;;;0.30;;
15651;SDS011;7926;43.576;1.458;2022-10-13T10:48:38;0.30;;;0.30;;
15651;SDS011;7926;43.576;1.458;2022-10-13T10:51:06;0.30;;;0.30;;
15651;SDS011;7926;43.576;1.458;2022-10-13T10:53:35;0.40;;;0.40;;
15651;SDS011;7926;43.576;1.458;2022-10-13T10:56:07;0.40;;;0.40;;
15651;SDS011;7926;43.576;1.458;2022-10-13T10:58:38;0.30;;;0.30;;
15651;SDS011;7926;43.576;1.458;2022-10-13T11:01:16;0.30;;;0.30;;
15651;SDS011;7926;43.576;1.458;2022-10-13T11:03:46;0.30;;;0.30;;
15651;SDS011;7926;43.576;1.458;2022-10-13T11:06:21;0.40;;;0.40;;
15651;SDS011;7926;43.576;1.458;2022-10-13T11:08:48;0.40;;;0.40;;
15651;SDS011;7926;43.576;1.458;2022-10-13T11:11:32;0.40;;;0.40;;
15651;SDS011;7926;43.576;1.458;2022-10-13T11:14:00;0.40;;;0.40;;
15651;SDS011;7926;43.576;1.458;2022-10-13T11:16:30;0.40;;;0.40;;
15651;SDS011;7926;43.576;1.458;2022-10-13T11:18:59;0.40;;;0.40;;
15651;SDS011;7926;43.576;1.458;2022-10-13T11:24:43;0.40;;;0.40;;
15651;SDS011;7926;43.576;1.458;2022-10-13T11:27:17;0.30;;;0.30;;
15651;SDS011;7926;43.576;1.458;2022-10-13T11:29:52;0.30;;;0.30;;
15651;SDS011;7926;43.576;1.458;2022-10-13T11:35:17;0.40;;;0.40;;
15651;SDS011;7926;43.576;1.458;2022-10-13T11:37:48;0.40;;;0.40;;
15651;SDS011;7926;43.576;1.458;2022-10-13T11:40:19;0.40;;;0.40;;
15651;SDS011;7926;43.576;1.458;2022-10-13T11:48:46;0.40;;;0.40;;
15651;SDS011;7926;43.576;1.458;2022-10-13T11:51:21;0.40;;;0.40;;
15651;SDS011;7926;43.576;1.458;2022-10-13T11:53:57;0.40;;;0.40;;
15651;SDS011;7926;43.576;1.458;2022-10-13T11:56:31;0.33;;;0.33;;
15651;SDS011;7926;43.576;1.458;2022-10-13T11:58:59;0.40;;;0.40;;
15651;SDS011;7926;43.576;1.458;2022-10-13T12:01:26;0.40;;;0.40;;
15651;SDS011;7926;43.576;1.458;2022-10-13T12:03:54;0.40;;;0.40;;
15651;SDS011;7926;43.576;1.458;2022-10-13T12:06:30;0.40;;;0.40;;
15651;SDS011;7926;43.576;1.458;2022-10-13T12:09:03;0.40;;;0.40;;
15651;SDS011;7926;43.576;1.458;2022-10-13T12:11:31;0.40;;;0.40;;
15651;SDS011;7926;43.576;1.458;2022-10-13T12:13:59;0.40;;;0.40;;
15651;SDS011;7926;43.576;1.458;2022-10-13T12:16:26;0.50;;;0.50;;
15651;SDS011;7926;43.576;1.458;2022-10-13T12:19:05;0.47;;;0.47;;
15651;SDS011;7926;43.576;1.458;2022-10-13T12:21:46;0.40;;;0.40;;
15651;SDS011;7926;43.576;1.458;2022-10-13T12:24:13;0.40;;;0.40;;
15651;SDS011;7926;43.576;1.458;2022-10-13T12:26:41;0.40;;;0.40;;
15651;SDS011;7926;43.576;1.458;2022-10-13T12:29:09;0.40;;;0.40;;
15651;SDS011;7926;43.576;1.458;2022-10-13T12:31:38;0.50;;;0.50;;
15651;SDS011;7926;43.576;1.458;2022-10-13T12:34:12;0.40;;;0.40;;
15651;SDS011;7926;43.576;1.458;2022-10-13T12:36:43;0.40;;;0.40;;
15651;SDS011;7926;43.576;1.458;2022-10-13T12:39:11;0.40;;;0.40;;
15651;SDS011;7926;43.576;1.458;2022-10-13T12:41:41;0.40;;;0.40;;
15651;SDS011;7926;43.576;1.458;2022-10-13T12:44:11;0.50;;;0.50;;
15651;SDS011;7926;43.576;1.458;2022-10-13T12:46:39;0.40;;;0.40;;
15651;SDS011;7926;43.576;1.458;2022-10-13T12:51:38;0.40;;;0.40;;
15651;SDS011;7926;43.576;1.458;2022-10-13T12:54:08;0.40;;;0.40;;
15651;SDS011;7926;43.576;1.458;2022-10-13T12:56:35;0.40;;;0.40;;
15651;SDS011;7926;43.576;1.458;2022-10-13T12:59:02;0.57;;;0.50;;
15651;SDS011;7926;43.576;1.458;2022-10-13T13:01:30;0.50;;;0.50;;
15651;SDS011;7926;43.576;1.458;2022-10-13T13:04:00;0.50;;;0.50;;
15651;SDS011;7926;43.576;1.458;2022-10-13T13:06:31;0.50;;;0.50;;
15651;SDS011;7926;43.576;1.458;2022-10-13T13:14:47;0.50;;;0.50;;
15651;SDS011;7926;43.576;1.458;2022-10-13T13:17:20;0.40;;;0.40;;
15651;SDS011;7926;43.576;1.458;2022-10-13T13:19:48;0.50;;;0.50;;
15651;SDS011;7926;43.576;1.458;2022-10-13T13:22:16;0.50;;;0.50;;
15651;SDS011;7926;43.576;1.458;2022-10-13T13:24:43;0.40;;;0.40;;
15651;SDS011;7926;43.576;1.458;2022-10-13T13:30:01;0.50;;;0.50;;
15651;SDS011;7926;43.576;1.458;2022-10-13T13:32:28;0.50;;;0.50;;
15651;SDS011;7926;43.576;1.458;2022-10-13T13:34:55;0.50;;;0.50;;
15651;SDS011;7926;43.576;1.458;2022-10-13T13:37:24;0.50;;;0.50;;
15651;SDS011;7926;43.576;1.458;2022-10-13T13:39:53;0.50;;;0.50;;
15651;SDS011;7926;43.576;1.458;2022-10-13T13:42:20;0.50;;;0.50;;
15651;SDS011;7926;43.576;1.458;2022-10-13T13:44:48;0.50;;;0.50;;
15651;SDS011;7926;43.576;1.458;2022-10-13T13:47:17;0.57;;;0.57;;
15651;SDS011;7926;43.576;1.458;2022-10-13T13:49:45;0.50;;;0.50;;
15651;SDS011;7926;43.576;1.458;2022-10-13T13:52:12;0.50;;;0.50;;
15651;SDS011;7926;43.576;1.458;2022-10-13T13:54:39;0.60;;;0.60;;
15651;SDS011;7926;43.576;1.458;2022-10-13T13:57:07;0.60;;;0.60;;
15651;SDS011;7926;43.576;1.458;2022-10-13T13:59:38;0.60;;;0.60;;
15651;SDS011;7926;43.576;1.458;2022-10-13T14:02:06;0.50;;;0.50;;
15651;SDS011;7926;43.576;1.458;2022-10-13T14:04:37;0.50;;;0.50;;
15651;SDS011;7926;43.576;1.458;2022-10-13T14:07:05;0.50;;;0.50;;
15651;SDS011;7926;43.576;1.458;2022-10-13T14:09:32;0.50;;;0.50;;
15651;SDS011;7926;43.576;1.458;2022-10-13T14:11:59;0.50;;;0.50;;
15651;SDS011;7926;43.576;1.458;2022-10-13T14:14:28;0.50;;;0.50;;
15651;SDS011;7926;43.576;1.458;2022-10-13T14:16:56;0.60;;;0.60;;
15651;SDS011;7926;43.576;1.458;2022-10-13T14:19:23;0.57;;;0.57;;
15651;SDS011;7926;43.576;1.458;2022-10-13T14:21:52;0.50;;;0.50;;
15651;SDS011;7926;43.576;1.458;2022-10-13T14:24:19;0.60;;;0.60;;
15651;SDS011;7926;43.576;1.458;2022-10-13T14:26:47;0.60;;;0.60;;
15651;SDS011;7926;43.576;1.458;2022-10-13T14:29:14;0.55;;;0.55;;
15651;SDS011;7926;43.576;1.458;2022-10-13T14:31:42;0.60;;;0.60;;
15651;SDS011;7926;43.576;1.458;2022-10-13T14:34:09;0.50;;;0.50;;
15651;SDS011;7926;43.576;1.458;2022-10-13T14:36:36;0.50;;;0.50;;
15651;SDS011;7926;43.576;1.458;2022-10-13T14:39:05;0.60;;;0.60;;
15651;SDS011;7926;43.576;1.458;2022-10-13T14:41:33;0.70;;;0.70;;
15651;SDS011;7926;43.576;1.458;2022-10-13T14:44:00;0.50;;;0.50;;
15651;SDS011;7926;43.576;1.458;2022-10-13T14:46:28;0.57;;;0.57;;
15651;SDS011;7926;43.576;1.458;2022-10-13T14:48:55;0.60;;;0.60;;
15651;SDS011;7926;43.576;1.458;2022-10-13T14:51:23;0.60;;;0.60;;
15651;SDS011;7926;43.576;1.458;2022-10-13T14:53:50;0.50;;;0.50;;
15651;SDS011;7926;43.576;1.458;2022-10-13T14:56:20;0.60;;;0.60;;
15651;SDS011;7926;43.576;1.458;2022-10-13T14:58:49;0.50;;;0.50;;
15651;SDS011;7926;43.576;1.458;2022-10-13T15:01:18;0.60;;;0.60;;
15651;SDS011;7926;43.576;1.458;2022-10-13T15:03:46;0.60;;;0.60;;
15651;SDS011;7926;43.576;1.458;2022-10-13T15:06:14;0.50;;;0.50;;
15651;SDS011;7926;43.576;1.458;2022-10-13T15:08:41;0.60;;;0.60;;
15651;SDS011;7926;43.576;1.458;2022-10-13T15:11:09;0.50;;;0.50;;
15651;SDS011;7926;43.576;1.458;2022-10-13T15:13:38;0.60;;;0.60;;
15651;SDS011;7926;43.576;1.458;2022-10-13T15:16:06;0.57;;;0.57;;
15651;SDS011;7926;43.576;1.458;2022-10-13T15:18:34;0.60;;;0.60;;
15651;SDS011;7926;43.576;1.458;2022-10-13T15:21:01;0.60;;;0.60;;
15651;SDS011;7926;43.576;1.458;2022-10-13T15:23:28;0.60;;;0.60;;
15651;SDS011;7926;43.576;1.458;2022-10-13T15:25:57;0.60;;;0.60;;
15651;SDS011;7926;43.576;1.458;2022-10-13T15:28:26;0.50;;;0.50;;
15651;SDS011;7926;43.576;1.458;2022-10-13T15:30:57;0.50;;;0.50;;
15651;SDS011;7926;43.576;1.458;2022-10-13T15:33:24;0.60;;;0.60;;
15651;SDS011;7926;43.576;1.458;2022-10-13T15:35:51;0.53;;;0.53;;
15651;SDS011;7926;43.576;1.458;2022-10-13T15:38:19;0.50;;;0.50;;
15651;SDS011;7926;43.576;1.458;2022-10-13T15:40:47;0.50;;;0.50;;
15651;SDS011;7926;43.576;1.458;2022-10-13T15:43:15;0.60;;;0.60;;
15651;SDS011;7926;43.576;1.458;2022-10-13T15:45:42;0.60;;;0.60;;